Time;durP1;ratioP1;P1;durP2;ratioP2;P2;SDS_P1;SDS_P2;PMS_P1;PMS_P2;Temp;Humidity;BMP_temperature;BMP_pressure;BME280_temperature;BME280_humidity;BME280_pressure;Samples;Min_cycle;Max_cycle;Signal;HPM_P1;HPM_P2
2022/09/09 00:01:25;;;;;;;7.57;6.88;;;;;;;;;;5006831;28;20105;-70
2022/09/09 00:03:53;;;;;;;7.78;7.13;;;;;;;;;;4985932;28;20049;-71
2022/09/09 00:06:35;;;;;;;8.02;7.22;;;;;;;;;;5008815;28;20041;-70
2022/09/09 00:09:10;;;;;;;7.45;6.85;;;;;;;;;;5003397;28;20413;-70
2022/09/09 00:12:04;;;;;;;8.00;7.10;;;;;;;;;;5008859;28;20053;-70
2022/09/09 00:14:51;;;;;;;8.35;6.93;;;;;;;;;;5005824;28;20045;-71
2022/09/09 00:17:40;;;;;;;6.95;6.45;;;;;;;;;;5006214;28;21420;-70
2022/09/09 00:20:18;;;;;;;8.43;6.97;;;;;;;;;;5018992;28;20121;-70
2022/09/09 00:23:16;;;;;;;6.78;6.30;;;;;;;;;;5011011;28;20042;-69
2022/09/09 00:26:01;;;;;;;7.43;6.80;;;;;;;;;;5009169;28;20425;-69
2022/09/09 00:28:30;;;;;;;7.00;6.50;;;;;;;;;;5005322;28;20513;-70
2022/09/09 00:31:00;;;;;;;9.50;6.90;;;;;;;;;;5007135;28;20034;-72
2022/09/09 00:33:26;;;;;;;11.13;6.75;;;;;;;;;;5010318;28;20116;-71
2022/09/09 00:35:58;;;;;;;11.63;7.20;;;;;;;;;;5006953;28;20106;-71
2022/09/09 00:38:26;;;;;;;11.57;7.10;;;;;;;;;;5008995;28;20728;-71
2022/09/09 00:40:59;;;;;;;9.18;6.80;;;;;;;;;;5012072;28;20032;-72
2022/09/09 00:43:37;;;;;;;7.78;7.10;;;;;;;;;;5013511;28;20753;-72
2022/09/09 00:46:43;;;;;;;8.15;7.30;;;;;;;;;;5008880;28;20045;-71
2022/09/09 00:49:35;;;;;;;7.85;7.05;;;;;;;;;;5012929;28;20485;-71
2022/09/09 00:52:29;;;;;;;7.80;7.00;;;;;;;;;;5009082;28;20641;-71
2022/09/09 00:55:32;;;;;;;7.70;6.97;;;;;;;;;;5010520;28;20489;-71
2022/09/09 00:57:57;;;;;;;8.32;7.00;;;;;;;;;;5015631;28;20037;-70
2022/09/09 01:00:26;;;;;;;7.50;6.90;;;;;;;;;;5012697;28;20038;-71
2022/09/09 01:03:21;;;;;;;7.22;6.63;;;;;;;;;;5016762;28;20634;-71
2022/09/09 01:06:00;;;;;;;7.72;6.78;;;;;;;;;;5018612;28;20121;-71
2022/09/09 01:08:39;;;;;;;7.47;6.80;;;;;;;;;;5012712;28;20528;-71
2022/09/09 01:11:12;;;;;;;8.10;7.40;;;;;;;;;;5019560;28;20050;-70
2022/09/09 01:13:39;;;;;;;7.00;6.40;;;;;;;;;;5008582;28;20042;-71
2022/09/09 01:16:11;;;;;;;8.52;7.38;;;;;;;;;;5013441;28;20045;-71
2022/09/09 01:18:43;;;;;;;;;;;;;;;;;;5019709;28;20034;-71
2022/09/09 01:21:30;;;;;;;7.47;6.75;;;;;;;;;;5013771;28;19913;-71
2022/09/09 01:24:17;;;;;;;9.32;6.72;;;;;;;;;;5016071;28;20383;-71
2022/09/09 01:27:17;;;;;;;8.07;7.35;;;;;;;;;;5012147;28;20130;-71
2022/09/09 01:29:43;;;;;;;6.90;6.30;;;;;;;;;;5011083;28;20204;-71
2022/09/09 01:32:45;;;;;;;7.68;6.88;;;;;;;;;;5007540;28;20806;-71
2022/09/09 01:35:33;;;;;;;11.73;7.13;;;;;;;;;;5010777;28;20038;-71
2022/09/09 01:38:01;;;;;;;7.25;6.72;;;;;;;;;;5007026;28;20057;-71
2022/09/09 01:40:27;;;;;;;14.93;7.10;;;;;;;;;;5024217;28;20037;-71
2022/09/09 01:42:54;;;;;;;7.40;6.80;;;;;;;;;;4994802;28;20386;-71
2022/09/09 01:45:21;;;;;;;7.65;6.88;;;;;;;;;;5025335;28;20037;-71
2022/09/09 01:47:48;;;;;;;7.65;7.00;;;;;;;;;;5009152;28;20037;-71
2022/09/09 01:50:21;;;;;;;7.88;7.25;;;;;;;;;;5013656;28;20037;-71
2022/09/09 01:52:52;;;;;;;7.57;6.88;;;;;;;;;;5012189;28;20033;-71
2022/09/09 01:55:29;;;;;;;8.00;7.28;;;;;;;;;;5010550;28;20049;-71
2022/09/09 01:58:04;;;;;;;7.60;7.05;;;;;;;;;;5015393;28;20034;-71
2022/09/09 02:00:31;;;;;;;7.60;6.90;;;;;;;;;;5025996;28;20044;-71
2022/09/09 02:03:04;;;;;;;;;;;;;;;;;;5010349;28;20030;-71
2022/09/09 02:05:54;;;;;;;8.32;7.05;;;;;;;;;;5019436;28;19914;-71
2022/09/09 02:08:49;;;;;;;8.05;7.25;;;;;;;;;;5019856;28;20034;-71
2022/09/09 02:11:21;;;;;;;7.88;7.05;;;;;;;;;;4999388;28;20125;-71
2022/09/09 02:14:01;;;;;;;7.90;7.20;;;;;;;;;;5007432;28;20038;-71
2022/09/09 02:16:52;;;;;;;7.88;7.07;;;;;;;;;;5024958;28;20049;-71
2022/09/09 02:19:26;;;;;;;7.90;7.30;;;;;;;;;;5009905;28;20099;-71
2022/09/09 02:22:22;;;;;;;7.78;7.07;;;;;;;;;;5010159;28;20045;-72
2022/09/09 02:24:51;;;;;;;7.90;7.20;;;;;;;;;;5022395;28;20104;-71
2022/09/09 02:27:23;;;;;;;8.02;7.40;;;;;;;;;;5012006;28;20038;-71
2022/09/09 02:29:51;;;;;;;7.70;7.00;;;;;;;;;;5012309;28;20034;-71
2022/09/09 02:32:23;;;;;;;7.63;6.88;;;;;;;;;;5006128;28;20037;-70
2022/09/09 02:35:07;;;;;;;7.97;7.28;;;;;;;;;;5007729;28;20432;-71
2022/09/09 02:37:37;;;;;;;7.80;7.22;;;;;;;;;;5015824;28;20037;-71
2022/09/09 02:40:04;;;;;;;7.60;7.00;;;;;;;;;;5020288;28;20038;-71
2022/09/09 02:42:32;;;;;;;8.48;7.78;;;;;;;;;;5023894;28;20551;-72
2022/09/09 02:44:59;;;;;;;13.07;7.32;;;;;;;;;;5014573;28;20560;-71
2022/09/09 02:47:36;;;;;;;7.90;7.18;;;;;;;;;;4994875;28;20073;-71
2022/09/09 02:50:30;;;;;;;8.05;7.15;;;;;;;;;;5005074;28;20048;-71
2022/09/09 02:53:15;;;;;;;8.10;7.43;;;;;;;;;;5009768;28;20633;-71
2022/09/09 02:56:07;;;;;;;9.32;7.45;;;;;;;;;;5014153;28;20563;-71
2022/09/09 02:58:36;;;;;;;7.95;7.25;;;;;;;;;;5020233;28;20026;-71
2022/09/09 03:01:05;;;;;;;11.30;8.05;;;;;;;;;;5011038;28;20038;-71
2022/09/09 03:03:31;;;;;;;8.15;7.45;;;;;;;;;;5007814;28;20386;-72
2022/09/09 03:05:59;;;;;;;9.80;7.20;;;;;;;;;;5007638;28;20034;-71
2022/09/09 03:08:27;;;;;;;10.30;7.47;;;;;;;;;;5007719;28;20083;-72
2022/09/09 03:10:54;;;;;;;12.10;7.60;;;;;;;;;;5007300;28;20040;-71
2022/09/09 03:13:20;;;;;;;8.65;7.57;;;;;;;;;;5009231;28;20025;-71
2022/09/09 03:15:48;;;;;;;8.80;8.00;;;;;;;;;;5007745;28;20108;-71
2022/09/09 03:18:16;;;;;;;10.52;7.90;;;;;;;;;;5012849;28;20036;-70
2022/09/09 03:20:43;;;;;;;7.78;7.07;;;;;;;;;;5007519;28;20120;-71
2022/09/09 03:23:10;;;;;;;7.72;7.10;;;;;;;;;;5007615;28;20030;-72
2022/09/09 03:25:35;;;;;;;8.00;7.25;;;;;;;;;;5001091;28;20034;-71
2022/09/09 03:28:01;;;;;;;7.75;7.13;;;;;;;;;;5006967;28;20077;-71
2022/09/09 03:30:28;;;;;;;10.15;7.88;;;;;;;;;;5026817;28;20041;-70
2022/09/09 03:32:55;;;;;;;9.35;7.70;;;;;;;;;;5018730;28;20937;-70
2022/09/09 03:35:23;;;;;;;7.70;6.90;;;;;;;;;;5020573;28;20042;-71
2022/09/09 03:37:49;;;;;;;9.25;7.50;;;;;;;;;;5006738;28;20034;-71
2022/09/09 03:40:15;;;;;;;8.48;7.47;;;;;;;;;;5023600;28;20037;-70
2022/09/09 03:42:44;;;;;;;7.68;6.90;;;;;;;;;;5018862;28;20125;-71
2022/09/09 03:45:10;;;;;;;8.38;7.63;;;;;;;;;;5010113;28;20116;-71
2022/09/09 03:47:38;;;;;;;10.20;7.80;;;;;;;;;;5009403;28;20034;-71
2022/09/09 03:50:09;;;;;;;8.77;7.93;;;;;;;;;;5006502;28;20037;-71
2022/09/09 03:52:40;;;;;;;10.82;7.18;;;;;;;;;;5017428;28;20510;-71
2022/09/09 03:55:10;;;;;;;8.65;7.30;;;;;;;;;;5007712;28;20338;-71
2022/09/09 03:57:37;;;;;;;7.70;7.00;;;;;;;;;;5008685;28;20041;-71
2022/09/09 04:00:07;;;;;;;10.10;6.72;;;;;;;;;;5018989;28;20038;-71
2022/09/09 04:02:43;;;;;;;7.25;6.75;;;;;;;;;;5007046;28;20033;-71
2022/09/09 04:05:09;;;;;;;12.90;7.47;;;;;;;;;;5018935;28;20074;-71
2022/09/09 04:07:37;;;;;;;7.97;7.00;;;;;;;;;;5022805;28;20069;-69
2022/09/09 04:10:02;;;;;;;7.57;6.97;;;;;;;;;;5011918;28;20038;-70
2022/09/09 04:12:31;;;;;;;7.60;6.88;;;;;;;;;;5002249;28;20520;-69
2022/09/09 04:14:57;;;;;;;10.52;7.22;;;;;;;;;;5015526;28;20046;-69
2022/09/09 04:17:23;;;;;;;7.78;6.88;;;;;;;;;;5005205;28;20084;-69
2022/09/09 04:19:48;;;;;;;7.57;6.78;;;;;;;;;;5010159;28;20080;-70
2022/09/09 04:22:14;;;;;;;13.13;7.40;;;;;;;;;;5002299;28;20088;-70
2022/09/09 04:24:39;;;;;;;7.65;7.00;;;;;;;;;;5021279;28;20571;-70
2022/09/09 04:27:06;;;;;;;7.97;7.20;;;;;;;;;;5006606;28;20057;-70
2022/09/09 04:29:34;;;;;;;7.55;6.88;;;;;;;;;;5006438;28;20045;-70
2022/09/09 04:32:00;;;;;;;8.55;6.80;;;;;;;;;;5007541;28;20034;-70
2022/09/09 04:34:26;;;;;;;7.25;6.63;;;;;;;;;;5008955;28;20480;-70
2022/09/09 04:36:54;;;;;;;8.02;7.20;;;;;;;;;;5022441;28;20047;-70
2022/09/09 04:39:20;;;;;;;9.52;7.30;;;;;;;;;;5003312;28;20037;-69
2022/09/09 04:41:46;;;;;;;9.75;7.47;;;;;;;;;;5009678;28;20034;-69
2022/09/09 04:44:12;;;;;;;9.07;7.10;;;;;;;;;;5008918;28;20575;-70
2022/09/09 04:46:38;;;;;;;7.85;7.13;;;;;;;;;;5019062;28;20113;-69
2022/09/09 04:49:05;;;;;;;7.60;7.07;;;;;;;;;;5020807;28;20029;-70
2022/09/09 04:51:32;;;;;;;7.82;7.22;;;;;;;;;;5009107;28;20041;-70
2022/09/09 04:53:58;;;;;;;11.02;7.20;;;;;;;;;;5006116;28;20048;-70
2022/09/09 04:56:26;;;;;;;11.63;7.10;;;;;;;;;;5005531;28;20038;-70
2022/09/09 04:58:55;;;;;;;7.68;7.00;;;;;;;;;;5010566;28;20048;-70
2022/09/09 05:01:26;;;;;;;10.43;7.70;;;;;;;;;;5005491;28;20037;-69
2022/09/09 05:03:57;;;;;;;8.00;7.30;;;;;;;;;;5021627;28;20444;-69
2022/09/09 05:06:23;;;;;;;11.93;7.18;;;;;;;;;;5009587;28;20042;-69
2022/09/09 05:08:54;;;;;;;7.90;7.18;;;;;;;;;;5004376;28;20412;-70
2022/09/09 05:11:29;;;;;;;11.60;7.32;;;;;;;;;;5019569;28;20030;-70
2022/09/09 05:14:04;;;;;;;8.02;7.22;;;;;;;;;;5005648;28;20042;-71
2022/09/09 05:16:31;;;;;;;8.07;7.38;;;;;;;;;;5005306;28;20084;-71
2022/09/09 05:18:58;;;;;;;7.63;6.93;;;;;;;;;;5004236;28;20037;-71
2022/09/09 05:21:26;;;;;;;;;;;;;;;;;;5017315;28;20023;-71
2022/09/09 05:23:52;;;;;;;7.75;7.15;;;;;;;;;;5004715;28;19975;-71
2022/09/09 05:26:20;;;;;;;7.75;7.03;;;;;;;;;;5023818;28;20072;-70
2022/09/09 05:28:48;;;;;;;8.52;7.15;;;;;;;;;;5013656;28;20037;-70
2022/09/09 05:31:16;;;;;;;8.85;7.70;;;;;;;;;;5006333;28;20088;-70
2022/09/09 05:33:45;;;;;;;8.32;7.45;;;;;;;;;;5021696;28;20030;-69
2022/09/09 05:36:15;;;;;;;8.07;7.38;;;;;;;;;;5010928;28;20077;-70
2022/09/09 05:38:42;;;;;;;10.77;7.50;;;;;;;;;;5007449;28;20048;-70
2022/09/09 05:41:10;;;;;;;7.80;7.00;;;;;;;;;;5006352;28;20025;-70
2022/09/09 05:43:38;;;;;;;8.00;7.20;;;;;;;;;;5008008;28;20113;-70
2022/09/09 05:46:09;;;;;;;7.47;6.88;;;;;;;;;;5010645;28;20038;-70
2022/09/09 05:48:40;;;;;;;7.75;7.00;;;;;;;;;;5023650;28;20058;-69
2022/09/09 05:51:08;;;;;;;7.05;6.55;;;;;;;;;;5008732;28;20352;-71
2022/09/09 05:53:34;;;;;;;7.22;6.63;;;;;;;;;;4996580;28;20037;-70
2022/09/09 05:56:03;;;;;;;7.88;7.13;;;;;;;;;;5007708;28;20067;-70
2022/09/09 05:58:30;;;;;;;;;;;;;;;;;;5010293;28;20061;-72
2022/09/09 06:01:07;;;;;;;7.45;6.90;;;;;;;;;;5018645;28;20275;-71
2022/09/09 06:03:38;;;;;;;7.55;6.93;;;;;;;;;;5010575;28;20026;-69
2022/09/09 06:06:06;;;;;;;9.00;6.88;;;;;;;;;;5009563;28;20038;-72
2022/09/09 06:08:34;;;;;;;7.70;7.05;;;;;;;;;;5006711;28;20049;-72
2022/09/09 06:11:05;;;;;;;9.40;6.85;;;;;;;;;;5006438;28;20065;-72
2022/09/09 06:13:32;;;;;;;7.55;7.00;;;;;;;;;;5009419;28;20041;-71
2022/09/09 06:15:59;;;;;;;7.80;7.22;;;;;;;;;;5023527;28;20082;-72
2022/09/09 06:18:26;;;;;;;8.18;7.10;;;;;;;;;;5021120;28;20084;-72
2022/09/09 06:21:01;;;;;;;8.55;7.88;;;;;;;;;;5006944;28;20489;-72
2022/09/09 06:23:28;;;;;;;7.93;7.15;;;;;;;;;;5010185;28;20640;-72
2022/09/09 06:26:10;;;;;;;8.32;7.55;;;;;;;;;;5006644;28;20135;-70
2022/09/09 06:28:36;;;;;;;13.68;7.70;;;;;;;;;;5026061;28;20034;-72
2022/09/09 06:31:05;;;;;;;8.00;7.30;;;;;;;;;;5010082;28;20121;-72
2022/09/09 06:33:32;;;;;;;8.60;7.97;;;;;;;;;;5011754;28;20029;-72
2022/09/09 06:35:57;;;;;;;8.43;7.63;;;;;;;;;;5020916;28;20330;-71
2022/09/09 06:38:23;;;;;;;8.40;7.68;;;;;;;;;;5007135;28;20041;-72
2022/09/09 06:40:57;;;;;;;8.13;7.40;;;;;;;;;;5006666;28;20041;-71
2022/09/09 06:43:24;;;;;;;7.47;6.97;;;;;;;;;;5018026;28;20041;-71
2022/09/09 06:46:05;;;;;;;7.93;7.22;;;;;;;;;;5010679;28;20052;-71
2022/09/09 06:48:32;;;;;;;7.78;7.05;;;;;;;;;;5023673;28;20045;-72
2022/09/09 06:51:02;;;;;;;7.60;6.68;;;;;;;;;;5020114;28;20057;-71
2022/09/09 06:53:29;;;;;;;8.00;6.80;;;;;;;;;;5006090;28;20041;-70
2022/09/09 06:55:55;;;;;;;7.40;6.70;;;;;;;;;;5011029;28;20068;-71
2022/09/09 06:58:24;;;;;;;7.65;6.95;;;;;;;;;;5025243;28;20034;-72
2022/09/09 07:00:51;;;;;;;7.93;7.07;;;;;;;;;;5010630;28;20046;-71
2022/09/09 07:03:17;;;;;;;8.20;7.30;;;;;;;;;;5005945;28;20045;-70
2022/09/09 07:05:44;;;;;;;7.53;6.78;;;;;;;;;;5012568;28;20117;-71
2022/09/09 07:08:10;;;;;;;7.45;6.63;;;;;;;;;;5007908;28;20029;-71
2022/09/09 07:10:36;;;;;;;9.50;7.32;;;;;;;;;;5003322;28;20099;-71
2022/09/09 07:13:02;;;;;;;12.93;7.38;;;;;;;;;;5023412;28;20565;-70
2022/09/09 07:15:27;;;;;;;11.57;7.68;;;;;;;;;;5012088;28;20037;-71
2022/09/09 07:17:54;;;;;;;8.57;7.30;;;;;;;;;;5018230;28;20046;-72
2022/09/09 07:20:20;;;;;;;7.95;7.25;;;;;;;;;;5019047;28;20485;-69
2022/09/09 07:22:46;;;;;;;7.53;6.93;;;;;;;;;;5006607;28;20030;-70
2022/09/09 07:25:12;;;;;;;7.88;7.05;;;;;;;;;;5018463;28;20033;-72
2022/09/09 07:27:37;;;;;;;7.65;6.88;;;;;;;;;;5012345;28;20509;-71
2022/09/09 07:30:04;;;;;;;7.72;6.95;;;;;;;;;;5005072;28;20504;-71
2022/09/09 07:32:32;;;;;;;8.50;7.35;;;;;;;;;;5022619;28;20323;-71
2022/09/09 07:34:58;;;;;;;7.63;6.80;;;;;;;;;;5019612;28;20046;-71
2022/09/09 07:37:25;;;;;;;9.80;7.38;;;;;;;;;;5022466;28;20160;-71
2022/09/09 07:39:52;;;;;;;11.10;7.15;;;;;;;;;;5006803;28;20044;-71
2022/09/09 07:42:17;;;;;;;7.15;6.55;;;;;;;;;;5020218;28;20042;-72
2022/09/09 07:44:43;;;;;;;7.63;7.03;;;;;;;;;;5004102;28;20038;-72
2022/09/09 07:47:12;;;;;;;;;;;;;;;;;;5018009;28;20042;-70
2022/09/09 07:49:42;;;;;;;8.38;7.68;;;;;;;;;;5020122;28;20373;-72
2022/09/09 07:52:08;;;;;;;7.95;7.15;;;;;;;;;;5021731;28;20030;-72
2022/09/09 07:54:37;;;;;;;12.40;7.45;;;;;;;;;;5004548;28;20611;-71
2022/09/09 07:57:04;;;;;;;8.00;7.18;;;;;;;;;;5007550;28;20129;-72
2022/09/09 07:59:31;;;;;;;10.80;7.30;;;;;;;;;;5011202;28;20606;-72
2022/09/09 08:01:58;;;;;;;10.50;6.82;;;;;;;;;;5006867;28;20038;-72
2022/09/09 08:04:27;;;;;;;7.80;7.07;;;;;;;;;;5011285;28;20041;-70
2022/09/09 08:06:59;;;;;;;8.60;7.70;;;;;;;;;;5024293;28;20038;-70
2022/09/09 08:09:28;;;;;;;11.25;7.30;;;;;;;;;;5007638;28;20061;-72
2022/09/09 08:11:58;;;;;;;8.52;7.75;;;;;;;;;;5021076;28;20038;-71
2022/09/09 08:14:25;;;;;;;7.70;6.93;;;;;;;;;;5003514;28;20419;-73
2022/09/09 08:16:52;;;;;;;9.38;7.30;;;;;;;;;;5004673;28;20034;-72
2022/09/09 08:19:21;;;;;;;8.25;7.20;;;;;;;;;;5022017;28;20117;-71
2022/09/09 08:21:48;;;;;;;7.57;6.97;;;;;;;;;;5010458;28;20589;-72
2022/09/09 08:24:15;;;;;;;8.57;6.72;;;;;;;;;;5011890;28;20512;-71
2022/09/09 08:26:47;;;;;;;7.90;7.20;;;;;;;;;;5008194;28;20366;-71
2022/09/09 08:29:14;;;;;;;7.50;6.90;;;;;;;;;;5022363;28;20043;-70
2022/09/09 08:31:46;;;;;;;7.22;6.55;;;;;;;;;;5006927;28;20033;-71
2022/09/09 08:34:13;;;;;;;7.03;6.40;;;;;;;;;;5021983;28;20137;-72
2022/09/09 08:36:49;;;;;;;8.07;6.80;;;;;;;;;;5005841;28;20030;-71
2022/09/09 08:39:17;;;;;;;7.50;6.78;;;;;;;;;;5010433;28;20046;-70
2022/09/09 08:42:02;;;;;;;;;;;;;;;;;;5005307;28;20034;-72
2022/09/09 08:44:33;;;;;;;7.25;6.13;;;;;;;;;;5019320;28;20454;-72
2022/09/09 08:47:14;;;;;;;7.68;6.60;;;;;;;;;;5005532;28;20048;-71
2022/09/09 08:50:06;;;;;;;7.35;6.55;;;;;;;;;;5001916;28;20064;-70
2022/09/09 08:52:47;;;;;;;7.13;6.53;;;;;;;;;;5007229;28;20092;-72
2022/09/09 08:55:21;;;;;;;7.10;6.40;;;;;;;;;;5021584;28;20091;-71
2022/09/09 08:57:49;;;;;;;7.35;6.63;;;;;;;;;;5021768;28;20065;-73
2022/09/09 09:00:15;;;;;;;7.03;6.28;;;;;;;;;;5008414;28;20448;-71
2022/09/09 09:03:14;;;;;;;6.97;6.35;;;;;;;;;;5024636;28;20633;-72
2022/09/09 09:05:57;;;;;;;7.57;6.60;;;;;;;;;;5023297;28;20141;-72
2022/09/09 09:08:46;;;;;;;9.23;6.50;;;;;;;;;;5007888;28;20691;-72
2022/09/09 09:11:12;;;;;;;7.35;6.65;;;;;;;;;;5013555;28;20042;-71
2022/09/09 09:13:45;;;;;;;7.13;6.57;;;;;;;;;;5009083;28;20036;-72
2022/09/09 09:16:41;;;;;;;6.82;6.22;;;;;;;;;;5005795;28;20088;-71
2022/09/09 09:19:15;;;;;;;7.22;6.63;;;;;;;;;;5025453;28;20068;-72
2022/09/09 09:21:55;;;;;;;7.30;6.70;;;;;;;;;;5025558;28;20493;-71
2022/09/09 09:24:26;;;;;;;7.32;6.68;;;;;;;;;;5020500;28;20172;-72
2022/09/09 09:26:52;;;;;;;8.38;6.60;;;;;;;;;;5008616;28;20037;-71
2022/09/09 09:29:21;;;;;;;7.22;6.45;;;;;;;;;;5025881;28;20038;-73
2022/09/09 09:31:56;;;;;;;7.03;6.40;;;;;;;;;;5026427;28;20061;-72
2022/09/09 09:34:24;;;;;;;7.45;6.68;;;;;;;;;;5026886;28;20041;-71
2022/09/09 09:36:57;;;;;;;7.13;6.35;;;;;;;;;;5012021;28;20108;-73
2022/09/09 09:39:26;;;;;;;6.50;5.80;;;;;;;;;;5009923;28;20037;-73
2022/09/09 09:41:52;;;;;;;7.43;5.73;;;;;;;;;;5007226;28;20072;-71
2022/09/09 09:44:26;;;;;;;6.97;5.68;;;;;;;;;;5013487;28;20168;-72
2022/09/09 09:46:53;;;;;;;7.32;6.50;;;;;;;;;;5026817;28;20080;-71
2022/09/09 09:49:19;;;;;;;13.52;6.55;;;;;;;;;;5009120;28;20036;-72
2022/09/09 09:51:44;;;;;;;6.75;6.20;;;;;;;;;;5025057;28;20033;-71
2022/09/09 09:54:18;;;;;;;6.28;5.88;;;;;;;;;;5008212;28;20401;-72
2022/09/09 09:56:49;;;;;;;6.18;5.78;;;;;;;;;;5014500;28;20042;-73
2022/09/09 09:59:23;;;;;;;6.53;6.07;;;;;;;;;;5021127;28;20500;-72
2022/09/09 10:01:49;;;;;;;6.53;6.13;;;;;;;;;;5022703;28;20180;-72
2022/09/09 10:04:22;;;;;;;7.22;6.53;;;;;;;;;;5024763;28;20499;-72
2022/09/09 10:06:50;;;;;;;6.20;5.70;;;;;;;;;;5007878;28;20046;-73
2022/09/09 10:09:25;;;;;;;6.53;5.35;;;;;;;;;;5009296;28;20503;-73
2022/09/09 10:12:22;;;;;;;6.15;5.57;;;;;;;;;;5010645;28;20156;-73
2022/09/09 10:14:56;;;;;;;5.90;5.40;;;;;;;;;;5012487;28;20038;-73
2022/09/09 10:17:43;;;;;;;5.40;5.00;;;;;;;;;;5007961;28;20067;-73
2022/09/09 10:20:29;;;;;;;6.43;5.28;;;;;;;;;;5013014;28;20029;-73
2022/09/09 10:23:16;;;;;;;5.93;5.30;;;;;;;;;;5009666;28;20441;-73
2022/09/09 10:26:00;;;;;;;8.77;6.25;;;;;;;;;;5003309;28;20241;-72
2022/09/09 10:28:32;;;;;;;6.18;5.57;;;;;;;;;;5009423;28;20033;-72
2022/09/09 10:31:30;;;;;;;5.97;5.47;;;;;;;;;;5009210;28;20038;-73
2022/09/09 10:34:35;;;;;;;5.43;5.13;;;;;;;;;;5006142;28;20061;-73
2022/09/09 10:37:11;;;;;;;6.38;5.78;;;;;;;;;;5008085;28;20041;-73
2022/09/09 10:39:40;;;;;;;5.85;5.25;;;;;;;;;;5010244;28;20104;-72
2022/09/09 10:42:12;;;;;;;8.90;6.90;;;;;;;;;;5003945;28;20085;-72
2022/09/09 10:45:00;;;;;;;6.90;6.40;;;;;;;;;;5006545;28;20044;-72
2022/09/09 10:47:41;;;;;;;6.65;5.97;;;;;;;;;;5005424;28;20520;-72
2022/09/09 10:50:13;;;;;;;6.00;5.55;;;;;;;;;;5005148;28;20144;-73
2022/09/09 10:53:23;;;;;;;8.15;5.75;;;;;;;;;;5006300;28;20030;-73
2022/09/09 10:56:00;;;;;;;9.13;5.75;;;;;;;;;;5010613;28;20088;-72
2022/09/09 10:58:34;;;;;;;7.13;6.32;;;;;;;;;;5008060;28;20045;-73
2022/09/09 11:01:09;;;;;;;6.22;5.82;;;;;;;;;;4999431;28;20490;-73
2022/09/09 11:03:39;;;;;;;6.47;5.97;;;;;;;;;;5006239;28;20037;-73
2022/09/09 11:06:19;;;;;;;6.40;6.00;;;;;;;;;;5011468;28;20034;-72
2022/09/09 11:08:45;;;;;;;7.25;6.72;;;;;;;;;;5007468;28;20136;-73
2022/09/09 11:11:17;;;;;;;7.25;6.57;;;;;;;;;;5002941;28;20112;-73
2022/09/09 11:13:53;;;;;;;7.57;6.38;;;;;;;;;;5009703;28;20037;-72
2022/09/09 11:16:31;;;;;;;6.78;6.18;;;;;;;;;;5007891;28;20030;-73
2022/09/09 11:19:09;;;;;;;6.18;5.78;;;;;;;;;;5003136;28;20041;-72
2022/09/09 11:21:39;;;;;;;7.32;6.13;;;;;;;;;;5006990;28;20225;-72
2022/09/09 11:24:12;;;;;;;6.38;5.78;;;;;;;;;;5009241;28;20037;-72
2022/09/09 11:26:47;;;;;;;6.88;6.30;;;;;;;;;;5008813;28;20494;-73
2022/09/09 11:29:36;;;;;;;6.97;6.32;;;;;;;;;;5006378;28;20031;-73
2022/09/09 11:32:18;;;;;;;7.50;6.70;;;;;;;;;;5009626;28;20034;-72
2022/09/09 11:34:53;;;;;;;7.50;6.30;;;;;;;;;;5011629;28;20513;-72
2022/09/09 11:37:39;;;;;;;12.18;6.97;;;;;;;;;;5007894;28;20033;-72
2022/09/09 11:40:14;;;;;;;7.75;7.00;;;;;;;;;;5008642;28;20482;-72
2022/09/09 11:42:41;;;;;;;7.70;7.10;;;;;;;;;;5007690;28;20042;-71
2022/09/09 11:45:19;;;;;;;9.05;6.88;;;;;;;;;;5006540;28;20564;-70
2022/09/09 11:47:53;;;;;;;9.25;7.70;;;;;;;;;;5010630;28;20038;-71
2022/09/09 11:50:18;;;;;;;8.30;7.50;;;;;;;;;;5007703;28;20692;-70
2022/09/09 11:52:47;;;;;;;8.30;7.35;;;;;;;;;;5002928;28;20498;-71
2022/09/09 11:55:34;;;;;;;8.20;7.40;;;;;;;;;;5007341;28;20092;-71
2022/09/09 11:58:04;;;;;;;8.75;7.97;;;;;;;;;;5011039;28;20034;-71
2022/09/09 12:00:37;;;;;;;8.15;7.40;;;;;;;;;;5001781;28;20029;-71
2022/09/09 12:03:23;;;;;;;8.48;7.55;;;;;;;;;;5006431;28;20108;-72
2022/09/09 12:05:51;;;;;;;7.45;6.80;;;;;;;;;;5011147;28;20042;-71
2022/09/09 12:08:24;;;;;;;8.25;7.57;;;;;;;;;;5006092;28;20030;-71
2022/09/09 12:10:56;;;;;;;7.22;6.75;;;;;;;;;;5006055;28;20033;-72
2022/09/09 12:13:24;;;;;;;7.55;7.05;;;;;;;;;;5004788;28;20104;-73
2022/09/09 12:15:58;;;;;;;7.90;7.50;;;;;;;;;;5022093;28;20436;-72
2022/09/09 12:18:39;;;;;;;7.68;7.28;;;;;;;;;;4999884;28;20691;-72
2022/09/09 12:21:35;;;;;;;6.85;6.45;;;;;;;;;;5007831;28;20041;-73
2022/09/09 12:24:13;;;;;;;7.50;7.07;;;;;;;;;;5001877;28;20061;-72
2022/09/09 12:26:58;;;;;;;8.32;7.63;;;;;;;;;;4999918;28;20117;-73
2022/09/09 12:29:33;;;;;;;7.20;6.80;;;;;;;;;;5006931;28;20038;-72
2022/09/09 12:32:06;;;;;;;7.30;6.90;;;;;;;;;;5001894;28;20048;-72
2022/09/09 12:34:32;;;;;;;7.00;6.55;;;;;;;;;;5008332;28;20472;-72
2022/09/09 12:37:09;;;;;;;7.32;6.90;;;;;;;;;;5006664;28;20041;-73
2022/09/09 12:39:46;;;;;;;7.28;6.78;;;;;;;;;;5009820;28;20030;-72
2022/09/09 12:42:19;;;;;;;7.25;6.80;;;;;;;;;;5008482;28;20069;-72
2022/09/09 12:44:58;;;;;;;7.72;7.13;;;;;;;;;;5008893;28;20091;-72
2022/09/09 12:47:45;;;;;;;;;;;;;;;;;;5009647;28;20034;-72
2022/09/09 12:50:21;;;;;;;7.13;6.60;;;;;;;;;;5000692;28;19929;-72
2022/09/09 12:52:49;;;;;;;7.45;6.70;;;;;;;;;;5008275;28;20099;-72
2022/09/09 12:55:33;;;;;;;7.00;6.30;;;;;;;;;;5006931;28;20042;-72
2022/09/09 12:58:00;;;;;;;6.72;6.25;;;;;;;;;;5006477;28;20034;-72
2022/09/09 13:00:26;;;;;;;6.85;6.25;;;;;;;;;;5002626;28;20123;-73
2022/09/09 13:03:01;;;;;;;7.25;6.38;;;;;;;;;;5015918;28;20120;-73
2022/09/09 13:05:33;;;;;;;7.18;6.47;;;;;;;;;;5008396;28;20030;-73
2022/09/09 13:08:04;;;;;;;7.00;6.32;;;;;;;;;;5006224;28;20335;-73
2022/09/09 13:10:38;;;;;;;7.07;6.47;;;;;;;;;;5002248;28;20134;-71
2022/09/09 13:13:12;;;;;;;7.28;6.78;;;;;;;;;;5005756;28;20037;-72
2022/09/09 13:15:38;;;;;;;8.25;6.70;;;;;;;;;;5005010;28;20452;-71
2022/09/09 13:18:11;;;;;;;6.90;6.40;;;;;;;;;;5005601;28;20033;-72
2022/09/09 13:20:37;;;;;;;7.55;6.82;;;;;;;;;;5006832;28;20037;-73
2022/09/09 13:23:03;;;;;;;7.20;6.70;;;;;;;;;;5007652;28;20052;-71
2022/09/09 13:25:29;;;;;;;6.80;6.30;;;;;;;;;;5004232;28;20065;-71
2022/09/09 13:28:01;;;;;;;6.60;6.07;;;;;;;;;;5008897;28;20044;-71
2022/09/09 13:30:29;;;;;;;6.78;6.28;;;;;;;;;;5020818;28;20432;-70
2022/09/09 13:33:17;;;;;;;6.60;6.15;;;;;;;;;;5010043;28;20041;-70
2022/09/09 13:35:58;;;;;;;10.35;6.50;;;;;;;;;;5010749;28;20076;-70
2022/09/09 13:38:25;;;;;;;6.88;6.40;;;;;;;;;;5010309;28;20065;-70
2022/09/09 13:41:05;;;;;;;7.45;6.90;;;;;;;;;;5003097;28;20048;-72
2022/09/09 13:43:38;;;;;;;6.53;5.95;;;;;;;;;;5006814;28;20026;-71
2022/09/09 13:46:24;;;;;;;7.40;6.70;;;;;;;;;;5007333;28;20054;-70
2022/09/09 13:48:57;;;;;;;7.45;6.13;;;;;;;;;;5008404;28;20030;-70
2022/09/09 13:51:34;;;;;;;6.65;5.90;;;;;;;;;;5006180;28;20045;-70
2022/09/09 13:54:01;;;;;;;7.03;6.25;;;;;;;;;;5004782;28;20452;-70
2022/09/09 13:56:27;;;;;;;6.97;6.20;;;;;;;;;;5005891;28;20508;-71
2022/09/09 13:58:52;;;;;;;6.65;6.13;;;;;;;;;;5010083;28;20034;-69
2022/09/09 14:01:18;;;;;;;6.88;6.30;;;;;;;;;;5005754;28;20037;-71
2022/09/09 14:03:44;;;;;;;6.63;6.13;;;;;;;;;;5006998;28;20087;-70
2022/09/09 14:06:10;;;;;;;6.80;6.20;;;;;;;;;;5007526;28;20034;-69
2022/09/09 14:08:36;;;;;;;7.13;6.63;;;;;;;;;;5008440;28;20457;-71
2022/09/09 14:11:08;;;;;;;7.22;6.60;;;;;;;;;;4995723;28;20549;-72
2022/09/09 14:13:34;;;;;;;6.93;6.40;;;;;;;;;;5000934;28;20033;-71
2022/09/09 14:16:00;;;;;;;6.97;6.38;;;;;;;;;;5010281;28;20120;-72
2022/09/09 14:18:25;;;;;;;7.07;6.40;;;;;;;;;;5006466;28;20455;-71
2022/09/09 14:20:51;;;;;;;6.68;6.15;;;;;;;;;;5009516;28;20034;-72
2022/09/09 14:23:17;;;;;;;6.72;6.18;;;;;;;;;;5003631;28;20542;-71
2022/09/09 14:25:43;;;;;;;6.85;6.35;;;;;;;;;;5008899;28;20547;-72
2022/09/09 14:28:13;;;;;;;7.10;6.60;;;;;;;;;;5008609;28;20029;-71
2022/09/09 14:30:41;;;;;;;6.82;6.32;;;;;;;;;;5006073;28;20124;-71
2022/09/09 14:33:08;;;;;;;6.00;5.60;;;;;;;;;;5007048;28;20080;-72
2022/09/09 14:35:34;;;;;;;7.05;6.53;;;;;;;;;;5012427;28;20033;-72
2022/09/09 14:38:01;;;;;;;6.10;5.65;;;;;;;;;;5004182;28;20102;-72
2022/09/09 14:40:26;;;;;;;6.80;6.20;;;;;;;;;;5016897;28;20034;-72
2022/09/09 14:42:53;;;;;;;6.70;6.05;;;;;;;;;;5008265;28;21479;-71
2022/09/09 14:45:19;;;;;;;6.63;6.13;;;;;;;;;;5005202;28;20033;-71
2022/09/09 14:47:45;;;;;;;6.75;6.25;;;;;;;;;;5003442;28;20132;-72
2022/09/09 14:50:12;;;;;;;7.03;6.43;;;;;;;;;;5005603;28;20121;-72
2022/09/09 14:52:38;;;;;;;6.50;6.10;;;;;;;;;;5004839;28;20041;-71
2022/09/09 14:55:05;;;;;;;6.82;6.43;;;;;;;;;;5009301;28;20033;-71
2022/09/09 14:57:30;;;;;;;6.80;6.30;;;;;;;;;;5003593;28;20033;-72
2022/09/09 14:59:56;;;;;;;6.50;6.10;;;;;;;;;;5009506;28;20374;-71
2022/09/09 15:02:22;;;;;;;6.40;6.00;;;;;;;;;;5007751;28;20034;-72
2022/09/09 15:04:49;;;;;;;6.72;6.22;;;;;;;;;;5004972;28;20454;-72
2022/09/09 15:07:16;;;;;;;6.50;6.07;;;;;;;;;;5001804;28;20042;-72
2022/09/09 15:09:42;;;;;;;6.70;6.30;;;;;;;;;;5007134;28;20168;-73
2022/09/09 15:12:08;;;;;;;6.13;5.82;;;;;;;;;;5006662;28;20534;-72
2022/09/09 15:14:35;;;;;;;6.65;6.05;;;;;;;;;;5008644;28;20038;-71